createdAt,value
2022-11-09T00:02:21.440Z,50.20
2022-11-09T00:04:47.883Z,50.50
2022-11-09T00:07:14.374Z,50.00
2022-11-09T00:09:40.882Z,50.80
2022-11-09T00:12:07.372Z,50.80
2022-11-09T00:14:33.810Z,49.80
2022-11-09T00:17:00.232Z,50.20
2022-11-09T00:19:26.675Z,50.10
2022-11-09T00:21:53.099Z,51.00
2022-11-09T00:24:19.550Z,50.20
2022-11-09T00:26:45.984Z,50.40
2022-11-09T00:29:12.416Z,50.80
2022-11-09T00:31:38.844Z,50.70
2022-11-09T00:34:05.299Z,50.40
2022-11-09T00:36:31.731Z,50.30
2022-11-09T00:38:58.150Z,49.70
2022-11-09T00:41:24.577Z,50.30
2022-11-09T00:43:51.030Z,51.90
2022-11-09T00:46:17.742Z,49.80
2022-11-09T00:48:44.243Z,50.40
2022-11-09T00:51:10.679Z,50.70
2022-11-09T00:53:37.108Z,50.00
2022-11-09T00:56:03.546Z,49.70
2022-11-09T00:58:30.011Z,50.00
2022-11-09T01:00:56.524Z,50.00
2022-11-09T01:03:23.030Z,50.60
2022-11-09T01:05:49.480Z,50.10
2022-11-09T01:08:15.907Z,50.30
2022-11-09T01:10:42.326Z,50.60
2022-11-09T01:13:08.739Z,50.40
2022-11-09T01:15:35.168Z,50.70
2022-11-09T01:18:01.586Z,50.90
2022-11-09T01:20:28.001Z,50.90
2022-11-09T01:22:54.444Z,49.70
2022-11-09T01:25:20.870Z,50.30
2022-11-09T01:27:47.292Z,50.60
2022-11-09T01:32:40.718Z,50.80
2022-11-09T01:35:07.163Z,50.40
2022-11-09T01:37:33.611Z,50.60
2022-11-09T01:42:27.064Z,50.20
2022-11-09T01:44:53.487Z,48.60
2022-11-09T01:47:19.930Z,50.30
2022-11-09T01:49:46.358Z,50.60
2022-11-09T01:52:12.799Z,50.70
2022-11-09T01:54:39.214Z,50.50
2022-11-09T01:57:05.668Z,50.70
2022-11-09T01:59:32.084Z,50.50
2022-11-09T02:01:58.513Z,50.40
2022-11-09T02:04:24.935Z,50.90
2022-11-09T02:06:51.420Z,50.50
2022-11-09T02:09:17.925Z,50.80
2022-11-09T02:11:44.345Z,50.00
2022-11-09T02:14:10.836Z,50.40
2022-11-09T02:16:37.254Z,50.60
2022-11-09T02:19:03.687Z,50.20
2022-11-09T02:21:30.103Z,50.30
2022-11-09T02:23:56.570Z,50.20
2022-11-09T02:26:22.991Z,50.30
2022-11-09T02:28:49.415Z,51.10
2022-11-09T02:31:15.851Z,50.40
2022-11-09T02:36:09.239Z,50.90
2022-11-09T02:38:35.683Z,50.40
2022-11-09T02:41:02.268Z,49.80
2022-11-09T02:43:28.710Z,50.20
2022-11-09T02:45:55.144Z,50.40
2022-11-09T02:48:21.603Z,49.60
2022-11-09T02:50:48.028Z,50.40
2022-11-09T02:53:14.459Z,50.40
2022-11-09T02:55:40.891Z,50.40
2022-11-09T03:00:34.271Z,50.30
2022-11-09T03:03:00.690Z,50.40
2022-11-09T03:05:27.127Z,50.30
2022-11-09T03:07:53.550Z,50.30
2022-11-09T03:10:19.992Z,50.10
2022-11-09T03:12:46.415Z,50.70
2022-11-09T03:15:12.851Z,50.40
2022-11-09T03:17:39.276Z,51.00
2022-11-09T03:20:05.703Z,50.40
2022-11-09T03:22:32.152Z,50.30
2022-11-09T03:24:58.574Z,49.90
2022-11-09T03:27:25.003Z,50.60
2022-11-09T03:29:51.445Z,49.80
2022-11-09T03:32:17.876Z,50.50
2022-11-09T03:34:44.316Z,50.70
2022-11-09T03:37:10.822Z,50.30
2022-11-09T03:39:37.272Z,50.10
2022-11-09T03:42:03.704Z,49.60
2022-11-09T03:44:30.146Z,50.20
2022-11-09T03:46:56.566Z,50.40
2022-11-09T03:49:22.994Z,50.20
2022-11-09T03:51:49.418Z,50.90
2022-11-09T03:54:15.839Z,50.70
2022-11-09T03:56:42.265Z,50.20
2022-11-09T03:59:08.701Z,50.40
2022-11-09T04:01:35.175Z,50.30
2022-11-09T04:04:01.699Z,50.60
2022-11-09T04:06:28.212Z,50.20
2022-11-09T04:08:54.668Z,50.60
2022-11-09T04:11:21.093Z,50.40
2022-11-09T04:13:47.540Z,51.10
2022-11-09T04:16:13.991Z,50.40
2022-11-09T04:21:07.411Z,50.30
2022-11-09T04:23:33.829Z,50.20
2022-11-09T04:26:00.269Z,50.50
2022-11-09T04:28:26.688Z,50.40
2022-11-09T04:30:53.126Z,51.10
2022-11-09T04:33:19.856Z,50.30
2022-11-09T04:38:13.566Z,50.40
2022-11-09T04:40:39.983Z,50.10
2022-11-09T04:43:06.420Z,50.70
2022-11-09T04:45:32.836Z,50.70
2022-11-09T04:47:59.270Z,50.40
2022-11-09T04:50:25.699Z,50.10
2022-11-09T04:52:52.124Z,50.30
2022-11-09T04:55:18.563Z,50.30
2022-11-09T04:57:44.991Z,50.10
2022-11-09T05:00:12.575Z,50.30
2022-11-09T05:02:38.991Z,50.10
2022-11-09T05:05:05.415Z,50.40
2022-11-09T05:07:31.846Z,50.30
2022-11-09T05:12:25.233Z,50.30
2022-11-09T05:14:51.677Z,50.90
2022-11-09T05:17:18.098Z,50.50
2022-11-09T05:22:11.489Z,50.20
2022-11-09T05:24:37.902Z,50.60
2022-11-09T05:27:04.336Z,50.50
2022-11-09T05:29:30.753Z,50.50
2022-11-09T05:34:24.146Z,50.60
2022-11-09T05:36:50.573Z,50.50
2022-11-09T05:39:17.017Z,50.30
2022-11-09T05:44:10.425Z,50.50
2022-11-09T05:46:36.839Z,50.40
2022-11-09T05:49:03.278Z,50.70
2022-11-09T05:51:29.707Z,50.40
2022-11-09T05:53:56.126Z,50.80
2022-11-09T05:56:22.553Z,51.10
2022-11-09T05:58:48.991Z,50.60
2022-11-09T06:01:15.415Z,50.50
2022-11-09T06:03:41.868Z,50.90
2022-11-09T06:06:10.140Z,50.60
2022-11-09T06:08:36.588Z,51.00
2022-11-09T06:11:03.016Z,51.00
2022-11-09T06:13:29.465Z,50.60
2022-11-09T06:15:55.917Z,50.90
2022-11-09T06:18:22.346Z,50.90
2022-11-09T06:20:48.792Z,51.70
2022-11-09T06:23:15.207Z,51.20
2022-11-09T06:25:41.646Z,50.90
2022-11-09T06:28:08.081Z,50.50
2022-11-09T06:30:34.510Z,51.30
2022-11-09T06:33:00.937Z,51.50
2022-11-09T06:35:29.414Z,51.00
2022-11-09T06:37:55.850Z,51.00
2022-11-09T06:40:22.264Z,52.10
2022-11-09T06:42:48.718Z,51.60
2022-11-09T06:45:15.152Z,51.50
2022-11-09T06:47:41.577Z,51.60
2022-11-09T06:50:08.003Z,51.80
2022-11-09T06:55:01.420Z,51.20
2022-11-09T06:57:27.861Z,51.70
2022-11-09T07:02:21.223Z,51.50
2022-11-09T07:04:47.680Z,51.40
2022-11-09T07:07:14.143Z,50.90
2022-11-09T07:09:40.643Z,51.30
2022-11-09T07:14:34.053Z,51.10
2022-11-09T07:17:00.477Z,51.50
2022-11-09T07:19:26.909Z,51.30
2022-11-09T07:21:53.331Z,51.30
2022-11-09T07:24:19.746Z,51.20
2022-11-09T07:26:46.192Z,51.30
2022-11-09T07:29:12.628Z,51.50
2022-11-09T07:31:39.061Z,51.70
2022-11-09T07:34:05.475Z,51.60
2022-11-09T07:38:58.934Z,52.00
2022-11-09T07:41:26.670Z,51.70
2022-11-09T07:43:55.813Z,51.60
2022-11-09T07:48:49.220Z,51.60
2022-11-09T07:51:15.659Z,51.90
2022-11-09T07:53:42.101Z,51.70
2022-11-09T07:56:08.642Z,51.70
2022-11-09T07:58:35.078Z,51.50
2022-11-09T08:03:28.490Z,51.60
2022-11-09T08:08:21.910Z,52.20
2022-11-09T08:10:48.368Z,51.30
2022-11-09T08:13:14.823Z,51.20
2022-11-09T08:15:41.253Z,51.70
2022-11-09T08:18:07.714Z,51.00
2022-11-09T08:20:34.171Z,51.80
2022-11-09T08:23:04.095Z,51.70
2022-11-09T08:25:31.546Z,50.90
2022-11-09T08:30:24.965Z,51.70
2022-11-09T08:32:51.416Z,51.40
2022-11-09T08:35:17.978Z,51.50
2022-11-09T08:37:44.442Z,51.10
2022-11-09T08:40:10.862Z,51.80
2022-11-09T08:42:37.288Z,51.60
2022-11-09T08:45:03.724Z,51.70
2022-11-09T08:47:30.160Z,51.40
2022-11-09T08:49:56.588Z,51.80
2022-11-09T08:52:23.008Z,51.00
2022-11-09T08:54:49.461Z,51.30
2022-11-09T08:57:15.919Z,51.30
2022-11-09T08:59:42.350Z,51.50
2022-11-09T09:02:08.835Z,51.20
2022-11-09T09:04:35.285Z,51.20
2022-11-09T09:07:01.757Z,51.70
2022-11-09T09:09:28.240Z,51.80
2022-11-09T09:11:54.660Z,51.70
2022-11-09T09:14:21.091Z,51.50
2022-11-09T09:16:47.510Z,51.70
2022-11-09T09:19:13.941Z,51.40
2022-11-09T09:21:40.358Z,51.70
2022-11-09T09:24:06.829Z,51.70
2022-11-09T09:26:33.247Z,51.40
2022-11-09T09:28:59.673Z,51.90
2022-11-09T09:31:26.094Z,52.00
2022-11-09T09:33:52.502Z,51.80
2022-11-09T09:36:18.920Z,51.30
2022-11-09T09:38:45.343Z,51.50
2022-11-09T09:41:11.775Z,51.30
2022-11-09T09:43:42.801Z,51.60
2022-11-09T09:46:09.814Z,51.80
2022-11-09T09:48:36.248Z,51.50
2022-11-09T09:51:02.676Z,51.70
2022-11-09T09:55:56.106Z,51.80
2022-11-09T09:58:22.947Z,51.90
2022-11-09T10:00:49.583Z,52.50
2022-11-09T10:03:16.007Z,51.30
2022-11-09T10:05:42.439Z,51.80
2022-11-09T10:08:08.866Z,51.60
2022-11-09T10:10:35.367Z,51.80
2022-11-09T10:13:01.825Z,51.40
2022-11-09T10:15:28.272Z,51.60
2022-11-09T10:17:54.698Z,51.80
2022-11-09T10:20:21.130Z,51.70
2022-11-09T10:22:47.619Z,51.40
2022-11-09T10:25:27.492Z,51.30
2022-11-09T10:28:00.485Z,51.80
2022-11-09T10:32:53.881Z,51.80
2022-11-09T10:35:20.328Z,51.60
2022-11-09T10:37:46.751Z,51.60
2022-11-09T10:40:13.174Z,51.40
2022-11-09T10:42:39.611Z,51.70
2022-11-09T10:45:06.034Z,52.10
2022-11-09T10:47:32.464Z,52.50
2022-11-09T10:49:58.891Z,51.70
2022-11-09T10:52:25.347Z,51.20
2022-11-09T10:54:51.780Z,52.00
2022-11-09T10:57:18.209Z,51.40
2022-11-09T10:59:44.636Z,51.70
2022-11-09T11:02:11.121Z,51.80
2022-11-09T11:04:37.623Z,52.40
2022-11-09T11:09:31.143Z,51.30
2022-11-09T11:11:57.572Z,52.30
2022-11-09T11:14:24.015Z,52.60
2022-11-09T11:16:50.546Z,51.90
2022-11-09T11:19:16.997Z,51.70
2022-11-09T11:21:43.448Z,51.50
2022-11-09T11:24:09.875Z,52.60
2022-11-09T11:26:36.301Z,52.10
2022-11-09T11:29:02.741Z,52.80
2022-11-09T11:31:29.180Z,51.90
2022-11-09T11:33:55.619Z,52.10
2022-11-09T11:36:22.212Z,52.00
2022-11-09T11:38:48.695Z,52.00
2022-11-09T11:41:15.123Z,52.20
2022-11-09T11:46:08.538Z,51.90
2022-11-09T11:48:34.960Z,52.30
2022-11-09T11:51:01.411Z,52.50
2022-11-09T11:53:27.833Z,51.90
2022-11-09T11:55:54.263Z,52.20
2022-11-09T11:58:20.709Z,51.80
2022-11-09T12:00:47.135Z,52.20
2022-11-09T12:03:13.573Z,52.60
2022-11-09T12:05:39.991Z,52.80
2022-11-09T12:08:06.433Z,52.50
2022-11-09T12:10:32.865Z,52.50
2022-11-09T12:12:59.321Z,52.20
2022-11-09T12:15:25.739Z,52.10
2022-11-09T12:17:52.188Z,53.70
2022-11-09T12:20:18.611Z,52.00
2022-11-09T12:25:11.999Z,52.20
2022-11-09T12:27:38.424Z,52.30
2022-11-09T12:30:04.887Z,52.40
2022-11-09T12:32:31.331Z,52.10
2022-11-09T12:34:57.788Z,52.00
2022-11-09T12:37:24.233Z,52.40
2022-11-09T12:39:50.686Z,52.20
2022-11-09T12:42:17.138Z,52.60
2022-11-09T12:44:43.581Z,51.90
2022-11-09T12:49:36.998Z,52.60
2022-11-09T12:52:03.431Z,52.50
2022-11-09T12:54:29.868Z,52.50
2022-11-09T12:56:56.297Z,52.00
2022-11-09T12:59:22.787Z,52.40
2022-11-09T13:01:49.247Z,52.30
2022-11-09T13:04:15.693Z,52.10
2022-11-09T13:06:42.227Z,51.50
2022-11-09T13:11:35.727Z,52.30
2022-11-09T13:14:02.144Z,52.00
2022-11-09T13:16:28.559Z,52.50
2022-11-09T13:21:21.975Z,52.60
2022-11-09T13:24:00.897Z,52.70
2022-11-09T13:26:29.026Z,52.00
2022-11-09T13:31:22.412Z,52.00
2022-11-09T13:33:48.834Z,52.50
2022-11-09T13:36:15.301Z,52.10
2022-11-09T13:38:41.725Z,52.10
2022-11-09T13:41:08.183Z,52.20
2022-11-09T13:43:34.617Z,51.90
2022-11-09T13:46:01.048Z,52.20
2022-11-09T13:48:27.489Z,52.40
2022-11-09T13:50:56.538Z,52.60
2022-11-09T13:53:23.209Z,52.10
2022-11-09T13:55:49.627Z,52.10
2022-11-09T13:58:16.055Z,52.50
2022-11-09T14:00:42.491Z,51.90
2022-11-09T14:05:35.909Z,51.90
2022-11-09T14:08:02.327Z,52.10
2022-11-09T14:10:28.762Z,52.50
2022-11-09T14:12:55.196Z,52.00
2022-11-09T14:15:21.620Z,52.10
2022-11-09T14:17:48.071Z,52.60
2022-11-09T14:20:14.533Z,52.00
2022-11-09T14:22:40.951Z,52.10
2022-11-09T14:25:07.381Z,52.30
2022-11-09T14:27:33.815Z,52.40
2022-11-09T14:30:00.250Z,52.60
2022-11-09T14:32:26.665Z,52.40
2022-11-09T14:34:53.092Z,52.30
2022-11-09T14:37:19.544Z,52.60
2022-11-09T14:39:46.025Z,52.60
2022-11-09T14:42:12.454Z,52.60
2022-11-09T14:44:38.867Z,52.30
2022-11-09T14:47:05.289Z,52.00
2022-11-09T14:49:31.741Z,52.90
2022-11-09T14:51:58.173Z,53.00
2022-11-09T14:54:24.597Z,51.90
2022-11-09T14:56:51.049Z,52.50
2022-11-09T14:59:17.473Z,52.00
2022-11-09T15:01:43.904Z,52.60
2022-11-09T15:04:10.406Z,52.40
2022-11-09T15:06:38.143Z,52.30
2022-11-09T15:09:07.009Z,52.50
2022-11-09T15:14:00.446Z,52.60
2022-11-09T15:21:21.018Z,53.00
2022-11-09T15:23:47.469Z,52.50
2022-11-09T15:26:13.944Z,52.50
2022-11-09T15:31:07.375Z,52.80
2022-11-09T15:33:33.811Z,51.90
2022-11-09T15:36:00.259Z,52.20
2022-11-09T15:38:26.775Z,52.60
2022-11-09T15:40:53.299Z,52.70
2022-11-09T15:43:19.746Z,53.00
2022-11-09T15:45:46.195Z,53.00
2022-11-09T15:48:12.635Z,52.70
2022-11-09T15:50:39.059Z,52.70
2022-11-09T15:53:05.487Z,53.90
2022-11-09T15:55:31.943Z,52.30
2022-11-09T15:57:58.363Z,52.50
2022-11-09T16:00:24.788Z,52.90
2022-11-09T16:02:51.225Z,52.70
2022-11-09T16:05:17.653Z,52.70
2022-11-09T16:07:44.067Z,52.50
2022-11-09T16:10:10.509Z,52.60
2022-11-09T16:12:36.931Z,52.70
2022-11-09T16:15:03.365Z,52.20
2022-11-09T16:17:29.805Z,53.20
2022-11-09T16:19:56.244Z,52.50
2022-11-09T16:22:22.695Z,52.70
2022-11-09T16:24:49.124Z,52.30
2022-11-09T16:27:35.335Z,53.10
2022-11-09T16:30:01.997Z,52.90
2022-11-09T16:32:28.439Z,52.80
2022-11-09T16:37:41.820Z,52.20
2022-11-09T16:40:08.284Z,53.20
2022-11-09T16:42:34.709Z,54.30
2022-11-09T16:45:01.178Z,53.20
2022-11-09T16:47:27.599Z,52.60
2022-11-09T16:49:54.051Z,49.50
2022-11-09T16:52:20.474Z,52.20
2022-11-09T16:54:46.906Z,52.70
2022-11-09T16:57:13.352Z,52.50
2022-11-09T16:59:39.773Z,53.00
2022-11-09T17:02:06.252Z,53.00
2022-11-09T17:04:32.699Z,52.60
2022-11-09T17:06:59.171Z,52.60
2022-11-09T17:09:25.604Z,52.50
2022-11-09T17:14:18.979Z,52.60
2022-11-09T17:16:45.417Z,53.30
2022-11-09T17:19:11.833Z,53.40
2022-11-09T17:24:05.226Z,52.90
2022-11-09T17:26:31.667Z,52.60
2022-11-09T17:28:58.090Z,53.10
2022-11-09T17:31:24.550Z,53.20
2022-11-09T17:33:50.980Z,52.60
2022-11-09T17:36:29.680Z,53.00
2022-11-09T17:39:03.845Z,52.60
2022-11-09T17:41:30.306Z,52.60
2022-11-09T17:43:56.733Z,53.20
2022-11-09T17:46:23.196Z,53.20
2022-11-09T17:48:49.621Z,53.20
2022-11-09T17:51:16.078Z,52.60
2022-11-09T17:53:42.754Z,52.80
2022-11-09T17:56:09.223Z,53.60
2022-11-09T17:58:35.658Z,53.50
2022-11-09T18:01:02.184Z,53.20
2022-11-09T18:05:55.593Z,55.10
2022-11-09T18:08:22.232Z,52.50
2022-11-09T18:10:48.833Z,53.10
2022-11-09T18:13:15.264Z,53.30
2022-11-09T18:15:41.695Z,53.50
2022-11-09T18:18:08.140Z,54.00
2022-11-09T18:20:34.564Z,53.50
2022-11-09T18:23:00.990Z,53.70
2022-11-09T18:25:27.420Z,53.40
2022-11-09T18:27:53.855Z,53.40
2022-11-09T18:30:20.283Z,53.60
2022-11-09T18:32:46.723Z,53.70
2022-11-09T18:37:40.156Z,53.70
2022-11-09T18:40:06.615Z,53.90
2022-11-09T18:42:33.066Z,53.30
2022-11-09T18:44:59.549Z,53.20
2022-11-09T18:47:25.988Z,53.20
2022-11-09T18:49:52.476Z,53.80
2022-11-09T18:52:18.952Z,53.20
2022-11-09T18:54:45.429Z,53.60
2022-11-09T18:57:15.907Z,53.60
2022-11-09T18:59:45.132Z,53.30
2022-11-09T19:02:11.618Z,53.40
2022-11-09T19:04:38.051Z,53.40
2022-11-09T19:11:58.555Z,53.10
2022-11-09T19:14:25.018Z,53.40
2022-11-09T19:16:51.455Z,54.00
2022-11-09T19:19:17.879Z,53.20
2022-11-09T19:21:44.322Z,53.30
2022-11-09T19:24:10.765Z,53.00
2022-11-09T19:29:04.172Z,53.20
2022-11-09T19:31:30.614Z,54.00
2022-11-09T19:33:57.056Z,53.70
2022-11-09T19:36:30.210Z,53.80
2022-11-09T19:38:57.317Z,53.40
2022-11-09T19:41:23.757Z,53.60
2022-11-09T19:43:50.191Z,53.80
2022-11-09T19:46:16.616Z,53.50
2022-11-09T19:48:43.075Z,53.40
2022-11-09T19:51:09.499Z,53.60
2022-11-09T19:53:41.009Z,53.20
2022-11-09T19:58:35.618Z,53.10
2022-11-09T20:01:02.078Z,53.50
2022-11-09T20:05:55.560Z,53.60
2022-11-09T20:08:22.212Z,53.10
2022-11-09T20:10:49.201Z,53.40
2022-11-09T20:13:15.631Z,53.10
2022-11-09T20:15:42.071Z,52.70
2022-11-09T20:18:08.501Z,53.10
2022-11-09T20:20:34.995Z,53.60
2022-11-09T20:23:01.418Z,53.50
2022-11-09T20:25:27.847Z,53.40
2022-11-09T20:27:54.283Z,53.30
2022-11-09T20:30:20.724Z,53.80
2022-11-09T20:32:47.153Z,54.00
2022-11-09T20:35:13.723Z,53.30
2022-11-09T20:37:40.177Z,53.70
2022-11-09T20:42:33.609Z,53.60
2022-11-09T20:45:00.032Z,53.10
2022-11-09T20:47:57.113Z,53.50
2022-11-09T20:50:12.900Z,52.70
2022-11-09T20:52:39.351Z,53.70
2022-11-09T20:55:05.774Z,53.50
2022-11-09T20:57:32.227Z,53.10
2022-11-09T21:02:25.639Z,53.20
2022-11-09T21:04:52.093Z,53.40
2022-11-09T21:07:18.546Z,53.40
2022-11-09T21:09:44.992Z,53.40
2022-11-09T21:14:38.420Z,53.70
2022-11-09T21:17:04.842Z,53.70
2022-11-09T21:21:58.859Z,53.30
2022-11-09T21:26:52.300Z,53.60
2022-11-09T21:29:18.730Z,53.50
2022-11-09T21:31:45.157Z,53.20
2022-11-09T21:36:38.579Z,52.90
2022-11-09T21:39:05.040Z,53.30
2022-11-09T21:41:31.476Z,54.10
2022-11-09T21:43:57.908Z,53.50
2022-11-09T21:46:24.358Z,52.80
2022-11-09T21:51:17.768Z,53.40
2022-11-09T21:53:44.215Z,53.70
2022-11-09T21:56:10.646Z,53.30
2022-11-09T22:01:04.102Z,53.40
2022-11-09T22:03:30.629Z,53.70
2022-11-09T22:05:57.086Z,53.30
2022-11-09T22:10:50.575Z,53.60
2022-11-09T22:13:17.009Z,53.90
2022-11-09T22:15:43.448Z,53.50
2022-11-09T22:18:09.882Z,53.20
2022-11-09T22:23:03.324Z,53.20
2022-11-09T22:25:29.767Z,53.10
2022-11-09T22:30:23.206Z,53.40
2022-11-09T22:32:49.657Z,53.40
2022-11-09T22:35:16.083Z,53.70
2022-11-09T22:40:09.489Z,53.60
2022-11-09T22:42:35.939Z,53.50
2022-11-09T22:45:02.365Z,53.20
2022-11-09T22:47:28.784Z,53.10
2022-11-09T22:49:55.260Z,53.80
2022-11-09T22:52:21.783Z,53.60
2022-11-09T22:54:48.236Z,53.10
2022-11-09T22:57:14.697Z,53.20
2022-11-09T22:59:41.114Z,53.20
2022-11-09T23:02:07.558Z,53.50
2022-11-09T23:04:33.988Z,53.40
2022-11-09T23:07:00.441Z,53.00
2022-11-09T23:09:26.918Z,53.10
2022-11-09T23:11:53.355Z,53.00
2022-11-09T23:16:46.855Z,53.20
2022-11-09T23:19:13.298Z,53.50
2022-11-09T23:21:39.726Z,54.10
2022-11-09T23:24:06.158Z,53.10
2022-11-09T23:26:32.636Z,53.20
2022-11-09T23:28:59.142Z,54.00
2022-11-09T23:31:25.592Z,53.40
2022-11-09T23:33:52.066Z,53.40
2022-11-09T23:36:18.541Z,53.50
2022-11-09T23:41:11.956Z,53.60
2022-11-09T23:43:38.400Z,53.10
2022-11-09T23:46:04.882Z,53.30
2022-11-09T23:50:58.281Z,53.70
2022-11-09T23:53:24.836Z,53.50
2022-11-09T23:55:51.472Z,53.80
2022-11-09T23:58:17.971Z,53.10
